Time;durP1;ratioP1;P1;durP2;ratioP2;P2;SDS_P1;SDS_P2;PMS_P1;PMS_P2;Temp;Humidity;BMP_temperature;BMP_pressure;BME280_temperature;BME280_humidity;BME280_pressure;Samples;Min_cycle;Max_cycle;Signal;HPM_P1;HPM_P2
2022/09/26 00:00:41;;;;;;;4.55;3.40;;;;;;;11.76;59.12;94774.28;5068378;28;20509;-70
2022/09/26 00:03:08;;;;;;;5.03;3.75;;;;;;;11.70;59.24;94774.78;5075807;28;20035;-70
2022/09/26 00:05:34;;;;;;;5.07;4.07;;;;;;;11.71;58.86;94776.44;5080494;28;20032;-70
2022/09/26 00:07:59;;;;;;;5.22;4.10;;;;;;;11.60;59.43;94765.19;5064758;28;20543;-70
2022/09/26 00:10:25;;;;;;;6.00;3.88;;;;;;;11.71;59.08;94779.88;5064607;28;20024;-71
2022/09/26 00:12:50;;;;;;;5.03;4.10;;;;;;;11.69;59.05;94770.56;5064532;28;20021;-71
2022/09/26 00:15:16;;;;;;;4.82;4.10;;;;;;;11.67;59.37;94778.47;5071030;28;20028;-70
2022/09/26 00:17:41;;;;;;;5.13;4.10;;;;;;;11.58;59.64;94767.09;5068671;28;20056;-70
2022/09/26 00:20:07;;;;;;;5.43;4.30;;;;;;;11.50;59.94;94768.72;5053050;28;20151;-70
2022/09/26 00:22:33;;;;;;;4.22;3.83;;;;;;;11.49;59.63;94767.91;5067053;28;20040;-71
2022/09/26 00:24:58;;;;;;;5.50;4.20;;;;;;;11.39;60.13;94777.47;5052750;28;20093;-71
2022/09/26 00:27:24;;;;;;;5.03;4.07;;;;;;;11.33;60.39;94767.59;5065035;28;20028;-71
2022/09/26 00:29:49;;;;;;;4.75;4.20;;;;;;;11.21;60.60;94760.88;5070617;28;20490;-70
2022/09/26 00:32:15;;;;;;;8.00;3.70;;;;;;;11.17;60.47;94762.88;5066319;28;20044;-70
2022/09/26 00:34:40;;;;;;;5.95;4.00;;;;;;;11.14;60.87;94766.59;5048120;28;20040;-70
2022/09/26 00:37:05;;;;;;;4.50;4.00;;;;;;;11.17;60.65;94768.09;5042759;28;20045;-70
2022/09/26 00:39:31;;;;;;;4.55;3.88;;;;;;;11.14;60.80;94764.00;5068533;28;20043;-70
2022/09/26 00:41:56;;;;;;;5.30;4.13;;;;;;;11.04;60.84;94776.13;5057808;28;20131;-71
2022/09/26 00:44:41;;;;;;;4.30;3.63;;;;;;;10.98;61.24;94781.00;5067958;28;20032;-71
2022/09/26 00:47:24;;;;;;;4.82;4.00;;;;;;;10.73;62.22;94765.72;5071182;28;20119;-70
2022/09/26 00:49:51;;;;;;;5.45;4.13;;;;;;;10.90;62.18;94772.09;5056803;28;20040;-71
2022/09/26 00:52:38;;;;;;;4.88;3.72;;;;;;;10.82;62.83;94758.09;5054322;28;20021;-71
2022/09/26 00:55:05;;;;;;;5.38;4.13;;;;;;;10.78;63.35;94759.31;5067821;28;20120;-71
2022/09/26 00:57:56;;;;;;;4.18;3.78;;;;;;;10.84;62.39;94756.22;5046749;28;20064;-70
2022/09/26 01:00:22;;;;;;;5.47;3.97;;;;;;;10.83;63.05;94767.53;5079765;28;20031;-70
2022/09/26 01:02:48;;;;;;;5.88;4.20;;;;;;;10.68;62.89;94752.28;5065491;28;20037;-70
2022/09/26 01:05:15;;;;;;;6.53;4.53;;;;;;;10.57;63.22;94760.16;5055857;28;20459;-70
2022/09/26 01:07:40;;;;;;;6.95;4.50;;;;;;;10.69;62.78;94769.53;5044491;28;20126;-70
2022/09/26 01:10:06;;;;;;;5.32;3.90;;;;;;;10.70;63.42;94759.97;5064104;28;20410;-70
2022/09/26 01:12:31;;;;;;;6.78;4.10;;;;;;;10.57;63.88;94752.38;5072728;28;20277;-70
2022/09/26 01:14:57;;;;;;;5.13;3.88;;;;;;;10.64;63.37;94745.72;5055577;28;20028;-70
2022/09/26 01:17:23;;;;;;;5.18;4.18;;;;;;;10.69;63.15;94737.53;5052956;28;20051;-70
2022/09/26 01:19:59;;;;;;;4.47;4.05;;;;;;;10.70;62.92;94732.22;5041010;28;20032;-71
2022/09/26 01:22:33;;;;;;;5.22;4.55;;;;;;;10.73;62.63;94734.53;5065299;28;20627;-70
2022/09/26 01:25:41;;;;;;;4.70;4.07;;;;;;;10.85;62.29;94731.88;5065021;28;20025;-71
2022/09/26 01:28:54;;;;;;;4.40;3.75;;;;;;;10.88;62.29;94747.19;5064469;28;20049;-71
2022/09/26 01:31:33;;;;;;;5.10;3.92;;;;;;;10.77;62.72;94735.09;5013681;28;20051;-70
2022/09/26 01:34:14;;;;;;;5.82;4.38;;;;;;;10.60;62.78;94726.13;5075742;28;20103;-70
2022/09/26 01:36:51;;;;;;;5.28;4.07;;;;;;;10.65;63.09;94736.16;5071210;28;20058;-70
2022/09/26 01:39:45;;;;;;;7.03;4.50;;;;;;;10.65;63.43;94747.34;5065632;28;20071;-71
2022/09/26 01:42:20;;;;;;;4.82;3.90;;;;;;;10.46;64.48;94747.25;5060472;28;20730;-70
2022/09/26 01:45:07;;;;;;;6.10;4.53;;;;;;;10.47;64.45;94747.13;5061618;28;20120;-70
2022/09/26 01:47:47;;;;;;;5.95;4.00;;;;;;;10.52;65.08;94746.72;5067435;28;20036;-70
2022/09/26 01:50:12;;;;;;;5.25;4.20;;;;;;;10.54;64.83;94744.84;5078325;28;20123;-71
2022/09/26 01:53:02;;;;;;;4.57;3.80;;;;;;;10.52;65.14;94737.16;5068769;28;20104;-70
2022/09/26 01:55:47;;;;;;;5.22;3.85;;;;;;;10.55;64.62;94738.69;5071120;28;20016;-70
2022/09/26 01:58:31;;;;;;;6.18;4.35;;;;;;;10.43;65.33;94734.53;5071754;28;20143;-71
2022/09/26 02:00:59;;;;;;;5.80;4.00;;;;;;;10.63;65.40;94738.88;5069782;28;20040;-71
2022/09/26 02:03:27;;;;;;;5.05;4.18;;;;;;;10.51;65.95;94729.53;5068237;28;20033;-70
2022/09/26 02:06:04;;;;;;;5.68;4.63;;;;;;;10.55;65.53;94725.69;5047930;28;20043;-70
2022/09/26 02:08:39;;;;;;;4.75;3.90;;;;;;;10.72;65.39;94730.28;5044957;28;20016;-70
2022/09/26 02:11:17;;;;;;;6.30;4.40;;;;;;;10.78;65.11;94713.38;5074848;28;20089;-70
2022/09/26 02:14:02;;;;;;;5.00;3.88;;;;;;;10.76;65.34;94706.66;5049901;28;20303;-70
2022/09/26 02:16:46;;;;;;;5.07;4.13;;;;;;;10.79;64.50;94703.81;5070865;28;20097;-70
2022/09/26 02:19:36;;;;;;;4.78;3.90;;;;;;;10.92;65.06;94718.22;5051194;28;20040;-70
2022/09/26 02:22:01;;;;;;;5.93;3.80;;;;;;;10.94;65.15;94720.66;5039226;28;20453;-70
2022/09/26 02:24:27;;;;;;;4.75;3.85;;;;;;;10.91;65.49;94721.75;5049482;28;20033;-70
2022/09/26 02:26:52;;;;;;;4.32;3.45;;;;;;;10.98;64.24;94714.28;5047226;28;20481;-71
2022/09/26 02:29:19;;;;;;;4.88;3.88;;;;;;;11.05;63.96;94704.97;5060505;28;20021;-70
2022/09/26 02:31:54;;;;;;;4.43;3.85;;;;;;;11.18;64.31;94713.38;5056740;28;20059;-70
2022/09/26 02:34:19;;;;;;;5.25;4.22;;;;;;;11.19;64.29;94696.78;5075276;28;20042;-70
2022/09/26 02:36:45;;;;;;;5.07;4.22;;;;;;;11.18;64.94;94695.16;5052227;28;20553;-71
2022/09/26 02:39:10;;;;;;;6.10;3.90;;;;;;;11.25;64.66;94685.03;5062765;28;20432;-70
2022/09/26 02:41:45;;;;;;;6.05;3.90;;;;;;;11.35;64.05;94685.88;5046938;28;20036;-70
2022/09/26 02:44:48;;;;;;;5.03;3.67;;;;;;;11.32;64.79;94683.56;5073134;28;20039;-70
2022/09/26 02:47:18;;;;;;;5.47;3.95;;;;;;;11.22;64.93;94674.91;5066965;28;20111;-70
2022/09/26 02:50:11;;;;;;;5.13;3.95;;;;;;;11.21;64.75;94670.69;5067922;28;20061;-70
2022/09/26 02:52:41;;;;;;;4.78;4.07;;;;;;;11.35;64.34;94674.66;5044183;28;20418;-71
2022/09/26 02:55:37;;;;;;;4.88;3.95;;;;;;;11.32;65.14;94683.56;5070979;28;20102;-70
2022/09/26 02:58:09;;;;;;;6.18;5.57;;;;;;;11.21;64.80;94673.28;5077424;28;20832;-71
2022/09/26 03:00:59;;;;;;;7.50;5.97;;;;;;;11.24;64.45;94686.00;5065850;28;20120;-70
2022/09/26 03:03:56;;;;;;;8.30;4.72;;;;;;;11.33;64.34;94689.56;5081390;28;20548;-71
2022/09/26 03:06:25;;;;;;;6.38;4.90;;;;;;;11.22;64.94;94685.31;5067938;28;20056;-71
2022/09/26 03:08:50;;;;;;;5.65;4.93;;;;;;;11.28;64.26;94683.94;5063635;28;20040;-70
2022/09/26 03:11:19;;;;;;;5.85;4.60;;;;;;;11.29;64.15;94670.00;5064848;28;20025;-71
2022/09/26 03:13:45;;;;;;;5.88;4.85;;;;;;;11.29;64.91;94676.03;5043955;28;20040;-70
2022/09/26 03:16:11;;;;;;;5.53;4.47;;;;;;;11.17;65.16;94672.72;5051885;28;20060;-71
2022/09/26 03:18:54;;;;;;;5.40;4.80;;;;;;;11.18;65.21;94676.97;5060185;28;20066;-70
2022/09/26 03:21:20;;;;;;;4.85;4.32;;;;;;;11.17;65.22;94667.53;5061246;28;20109;-70
2022/09/26 03:23:45;;;;;;;6.93;5.35;;;;;;;11.15;65.47;94671.22;5048438;28;20481;-71
2022/09/26 03:26:13;;;;;;;5.18;4.57;;;;;;;11.06;65.75;94670.25;5058653;28;20410;-70
2022/09/26 03:28:38;;;;;;;7.18;4.95;;;;;;;11.13;65.63;94678.31;5045957;28;20032;-70
2022/09/26 03:31:04;;;;;;;6.57;5.00;;;;;;;11.07;65.94;94684.88;5067239;28;20121;-70
2022/09/26 03:33:30;;;;;;;7.63;6.13;;;;;;;10.94;66.20;94664.31;5053222;28;20090;-71
2022/09/26 03:35:57;;;;;;;6.25;4.93;;;;;;;10.86;66.55;94655.53;5069851;28;20043;-70
2022/09/26 03:38:23;;;;;;;5.40;4.40;;;;;;;10.81;66.63;94652.50;5053156;28;20090;-70
2022/09/26 03:40:48;;;;;;;6.55;5.43;;;;;;;10.91;66.48;94658.56;5050276;28;20044;-70
2022/09/26 03:43:14;;;;;;;7.97;5.50;;;;;;;10.74;67.27;94652.22;5048774;28;20052;-70
2022/09/26 03:45:39;;;;;;;6.38;4.78;;;;;;;10.74;67.35;94652.22;5051025;28;20029;-70
2022/09/26 03:48:05;;;;;;;7.47;5.55;;;;;;;10.84;66.77;94647.88;5081996;28;20540;-70
2022/09/26 03:50:32;;;;;;;6.90;5.50;;;;;;;10.81;67.07;94635.16;5078351;28;20078;-70
2022/09/26 03:52:59;;;;;;;7.95;6.40;;;;;;;10.64;67.32;94623.63;5076827;28;20075;-70
2022/09/26 03:55:24;;;;;;;9.02;6.10;;;;;;;10.67;67.26;94644.16;5043316;28;20096;-71
2022/09/26 03:57:50;;;;;;;8.35;5.93;;;;;;;10.73;67.32;94650.59;5063821;28;20048;-71
2022/09/26 04:00:15;;;;;;;7.15;5.53;;;;;;;10.65;67.82;94646.03;5068078;28;20027;-70
2022/09/26 04:02:40;;;;;;;7.78;6.00;;;;;;;10.61;67.98;94649.84;5047204;28;20044;-70
2022/09/26 04:05:06;;;;;;;7.97;6.13;;;;;;;10.61;68.09;94649.84;5069517;28;20028;-70
2022/09/26 04:07:32;;;;;;;7.55;5.90;;;;;;;10.64;68.05;94652.22;5063349;28;20051;-70
2022/09/26 04:09:57;;;;;;;6.78;5.38;;;;;;;10.68;68.17;94647.56;5068058;28;20016;-70
2022/09/26 04:12:23;;;;;;;6.13;5.18;;;;;;;10.59;68.10;94630.19;5061702;28;20044;-70
2022/09/26 04:14:48;;;;;;;5.60;4.25;;;;;;;10.67;67.88;94635.50;5057016;28;20421;-70
2022/09/26 04:17:13;;;;;;;7.75;5.00;;;;;;;10.73;67.55;94635.81;5055774;28;20419;-70
2022/09/26 04:19:39;;;;;;;7.65;5.13;;;;;;;10.74;68.18;94650.44;5057972;28;20028;-70
2022/09/26 04:22:07;;;;;;;6.40;5.30;;;;;;;10.69;68.24;94644.81;5052689;28;20051;-71
2022/09/26 04:24:32;;;;;;;8.05;5.82;;;;;;;10.68;68.17;94657.94;5067490;28;20119;-70
2022/09/26 04:26:58;;;;;;;9.90;7.00;;;;;;;10.66;68.16;94649.47;5057979;28;20485;-70
2022/09/26 04:29:23;;;;;;;11.20;7.80;;;;;;;10.52;68.38;94654.06;5082263;28;20042;-70
2022/09/26 04:31:50;;;;;;;11.00;8.63;;;;;;;10.45;68.55;94658.13;5077277;28;20064;-70
2022/09/26 04:34:15;;;;;;;10.95;7.38;;;;;;;10.46;68.55;94654.56;5060135;28;20486;-70
2022/09/26 04:36:41;;;;;;;10.90;7.38;;;;;;;10.55;68.56;94663.34;5071243;28;20051;-71
2022/09/26 04:39:07;;;;;;;9.60;7.45;;;;;;;10.57;68.11;94669.25;5075981;28;20035;-70
2022/09/26 04:41:32;;;;;;;11.40;7.78;;;;;;;10.62;68.36;94669.69;5075488;28;20029;-70
2022/09/26 04:43:58;;;;;;;10.80;7.35;;;;;;;10.57;68.58;94671.03;5079205;28;20035;-70
2022/09/26 04:46:26;;;;;;;14.60;8.75;;;;;;;10.46;68.58;94664.16;5056885;28;20033;-70
2022/09/26 04:48:52;;;;;;;11.93;7.88;;;;;;;10.43;68.75;94651.44;5060035;28;20462;-70
2022/09/26 04:51:18;;;;;;;10.40;7.88;;;;;;;10.65;68.18;94674.63;5064129;28;20083;-71
2022/09/26 04:53:44;;;;;;;10.98;7.95;;;;;;;10.64;67.95;94654.81;5029579;28;20017;-71
2022/09/26 04:56:11;;;;;;;10.82;7.70;;;;;;;10.53;68.38;94652.31;5064213;28;20075;-70
2022/09/26 04:58:40;;;;;;;9.52;6.95;;;;;;;10.56;68.79;94667.63;5047434;28;20042;-70
2022/09/26 05:01:11;;;;;;;10.50;7.68;;;;;;;10.65;68.73;94660.81;5057309;28;20032;-70
2022/09/26 05:03:36;;;;;;;10.80;6.85;;;;;;;10.67;68.39;94651.94;5061069;28;20106;-70
2022/09/26 05:06:06;;;;;;;9.55;6.55;;;;;;;10.70;68.62;94663.84;5042152;28;20040;-70
2022/09/26 05:08:31;;;;;;;7.15;6.20;;;;;;;10.63;68.26;94645.34;5065156;28;20028;-70
2022/09/26 05:10:57;;;;;;;10.43;6.35;;;;;;;10.62;68.77;94661.91;5058928;28;20036;-70
2022/09/26 05:13:23;;;;;;;10.02;6.00;;;;;;;10.63;68.87;94660.94;5029956;28;20516;-71
2022/09/26 05:15:53;;;;;;;9.23;6.22;;;;;;;10.81;68.53;94649.91;5056172;28;20032;-70
2022/09/26 05:18:20;;;;;;;6.75;5.70;;;;;;;10.80;68.69;94645.69;5062245;28;20089;-70
2022/09/26 05:20:47;;;;;;;9.38;6.18;;;;;;;10.77;69.31;94632.94;5046453;28;20502;-70
2022/09/26 05:23:12;;;;;;;8.07;5.50;;;;;;;10.81;68.97;94636.91;5056983;28;20031;-71
2022/09/26 05:28:24;;;;;;;9.68;6.25;;;;;;;11.04;68.56;94633.16;5067018;28;20120;-70
2022/09/26 05:30:50;;;;;;;9.70;6.50;;;;;;;11.10;68.94;94635.22;5035866;28;20284;-69
2022/09/26 05:33:20;;;;;;;6.47;5.50;;;;;;;11.20;68.77;94632.66;5054183;28;20082;-70
2022/09/26 05:35:49;;;;;;;5.38;4.65;;;;;;;11.35;68.35;94625.25;5060863;28;20481;-71
2022/09/26 05:38:15;;;;;;;11.55;6.78;;;;;;;11.67;67.87;94619.75;5064457;28;20024;-69
2022/09/26 05:40:55;;;;;;;12.00;9.98;;;;;;;12.13;65.99;94620.00;5057727;28;20409;-70
2022/09/26 05:43:32;;;;;;;17.75;11.30;;;;;;;12.16;65.01;94619.72;5055029;28;20029;-69
2022/09/26 05:46:05;;;;;;;17.08;10.93;;;;;;;12.07;64.44;94600.56;5067042;28;20508;-69
2022/09/26 05:48:31;;;;;;;20.77;10.32;;;;;;;12.02;64.83;94603.56;5040867;28;20048;-70
2022/09/26 05:51:04;;;;;;;15.25;9.52;;;;;;;12.14;65.14;94612.03;5061200;28;20024;-69
2022/09/26 05:53:31;;;;;;;13.38;10.02;;;;;;;12.29;64.79;94615.84;5063872;28;20036;-69
2022/09/26 05:55:56;;;;;;;23.80;10.88;;;;;;;12.39;64.31;94623.59;5051513;28;20069;-70
2022/09/26 05:58:21;;;;;;;20.60;11.05;;;;;;;12.45;64.19;94645.66;5052947;28;20097;-69
2022/09/26 06:00:47;;;;;;;22.85;11.63;;;;;;;12.47;64.10;94639.34;5073700;28;20122;-69
2022/09/26 06:03:14;;;;;;;24.10;12.50;;;;;;;12.47;64.14;94638.53;5051199;28;20083;-69
2022/09/26 06:05:40;;;;;;;22.25;11.07;;;;;;;12.38;64.49;94616.78;5051869;28;20071;-69
2022/09/26 06:08:07;;;;;;;21.50;11.52;;;;;;;12.40;64.35;94612.25;5067632;28;20031;-69
2022/09/26 06:10:33;;;;;;;20.65;11.50;;;;;;;12.53;64.67;94641.38;5074796;28;20036;-69
2022/09/26 06:13:00;;;;;;;20.27;11.38;;;;;;;12.66;64.28;94635.03;5040982;28;20115;-70
2022/09/26 06:15:26;;;;;;;23.85;11.50;;;;;;;12.72;64.40;94637.06;5073930;28;20028;-69
2022/09/26 06:17:59;;;;;;;23.30;11.43;;;;;;;12.73;64.19;94636.09;5054112;28;20525;-69
2022/09/26 06:20:24;;;;;;;27.27;11.55;;;;;;;12.73;64.18;94636.94;5050038;28;20029;-68
2022/09/26 06:22:51;;;;;;;17.77;10.50;;;;;;;12.85;64.01;94649.78;5067950;28;20051;-69
2022/09/26 06:25:16;;;;;;;17.60;10.43;;;;;;;12.92;63.50;94659.44;5071074;28;20055;-69
2022/09/26 06:27:42;;;;;;;12.95;8.70;;;;;;;12.95;62.39;94651.38;5070510;28;20036;-68
2022/09/26 06:30:11;;;;;;;20.55;8.93;;;;;;;13.06;62.12;94652.13;5078658;28;20029;-70
2022/09/26 06:32:38;;;;;;;17.83;8.82;;;;;;;13.02;62.67;94642.97;5067231;28;20047;-69
2022/09/26 06:35:04;;;;;;;15.90;9.63;;;;;;;13.11;63.16;94636.84;5077524;28;20067;-69
2022/09/26 06:37:30;;;;;;;16.27;9.35;;;;;;;13.06;62.14;94649.50;5079651;28;20115;-69
2022/09/26 06:39:55;;;;;;;14.77;9.30;;;;;;;13.19;61.57;94663.84;5082376;28;20032;-69
2022/09/26 06:42:21;;;;;;;13.75;8.75;;;;;;;13.22;61.20;94641.88;5065666;28;20552;-69
2022/09/26 06:44:47;;;;;;;15.23;9.63;;;;;;;13.27;61.23;94641.47;5065398;28;20027;-69
2022/09/26 06:47:12;;;;;;;15.35;9.30;;;;;;;13.28;61.30;94633.47;5076920;28;20486;-69
2022/09/26 06:49:38;;;;;;;14.95;9.75;;;;;;;13.61;59.23;94615.53;5084605;28;20455;-69
2022/09/26 06:52:03;;;;;;;17.45;10.10;;;;;;;13.71;59.01;94634.53;5067101;28;20053;-69
2022/09/26 06:54:29;;;;;;;18.48;10.82;;;;;;;13.96;57.76;94632.13;5071809;28;20029;-69
2022/09/26 06:56:55;;;;;;;16.73;9.55;;;;;;;14.22;56.76;94632.13;5083895;28;20100;-69
2022/09/26 06:59:21;;;;;;;16.50;9.63;;;;;;;14.54;56.54;94631.53;5072979;28;20517;-69
2022/09/26 07:01:47;;;;;;;14.70;8.45;;;;;;;14.86;53.34;94633.47;5049445;28;20039;-69
2022/09/26 07:04:14;;;;;;;12.35;7.80;;;;;;;15.01;52.96;94632.88;5069104;28;20047;-69
2022/09/26 07:06:40;;;;;;;13.35;7.57;;;;;;;15.32;51.54;94633.97;5078290;28;20044;-70
2022/09/26 07:09:06;;;;;;;15.82;7.60;;;;;;;15.47;51.56;94625.47;5039549;28;20055;-70
2022/09/26 07:11:31;;;;;;;11.45;7.20;;;;;;;15.47;51.40;94636.75;5077113;28;20037;-71
2022/09/26 07:14:00;;;;;;;18.45;7.70;;;;;;;15.68;51.46;94646.78;5066071;28;20048;-71
2022/09/26 07:16:26;;;;;;;12.15;7.60;;;;;;;15.89;50.86;94643.69;5081480;28;20080;-71
2022/09/26 07:18:51;;;;;;;13.18;7.53;;;;;;;16.17;49.74;94635.50;5075745;28;20027;-71
2022/09/26 07:21:17;;;;;;;11.02;7.68;;;;;;;16.30;50.01;94633.19;5038641;28;20033;-71
2022/09/26 07:23:42;;;;;;;13.63;7.97;;;;;;;16.33;50.11;94639.91;5059690;28;20031;-71
2022/09/26 07:26:08;;;;;;;14.82;7.20;;;;;;;16.40;49.99;94633.81;5070055;28;20036;-71
2022/09/26 07:28:33;;;;;;;11.45;7.32;;;;;;;16.41;49.19;94626.75;5067549;28;20031;-71
2022/09/26 07:30:59;;;;;;;11.35;6.82;;;;;;;16.28;49.47;94619.44;5083582;28;20544;-71
2022/09/26 07:33:24;;;;;;;11.30;7.05;;;;;;;16.40;48.76;94633.81;5055337;28;20056;-71
2022/09/26 07:35:50;;;;;;;10.45;7.03;;;;;;;16.41;48.78;94617.13;5077673;28;20032;-71
2022/09/26 07:38:16;;;;;;;10.55;7.20;;;;;;;16.38;48.42;94627.09;5067967;28;20024;-71
2022/09/26 07:40:42;;;;;;;11.27;7.25;;;;;;;16.30;48.47;94620.91;5069245;28;20081;-71
2022/09/26 07:43:07;;;;;;;16.98;7.00;;;;;;;16.33;48.71;94630.25;5044085;28;20032;-71
2022/09/26 07:51:01;;;;;;;11.45;6.45;;;;;;;16.06;49.70;94628.78;5080818;28;20123;-71
2022/09/26 07:53:26;;;;;;;8.88;6.55;;;;;;;16.15;50.73;94637.47;5066262;28;20107;-71
2022/09/26 07:56:04;;;;;;;13.02;6.28;;;;;;;16.11;51.41;94630.94;5045772;28;20028;-71
2022/09/26 07:58:34;;;;;;;7.78;6.00;;;;;;;15.96;49.12;94610.59;5054117;28;20036;-71
2022/09/26 08:01:00;;;;;;;8.43;5.75;;;;;;;16.01;48.96;94608.31;5070623;28;20047;-72
2022/09/26 08:03:27;;;;;;;11.18;6.05;;;;;;;16.00;49.93;94606.69;5077023;28;20032;-72
2022/09/26 08:05:58;;;;;;;12.43;5.75;;;;;;;16.06;51.39;94603.41;5084421;28;20064;-72
2022/09/26 08:08:23;;;;;;;;;;;;;;;16.24;51.04;94605.00;5039034;28;20036;-71
2022/09/26 08:10:48;;;;;;;12.97;5.67;;;;;;;16.27;52.05;94595.03;5079636;28;19924;-71
2022/09/26 08:13:14;;;;;;;10.32;5.35;;;;;;;16.42;48.00;94586.47;5062130;28;20279;-71
2022/09/26 08:15:39;;;;;;;6.22;4.30;;;;;;;16.56;47.60;94587.59;5084976;28;20651;-71
2022/09/26 08:18:05;;;;;;;7.70;4.30;;;;;;;16.64;48.05;94575.25;5063472;28;20064;-71
2022/09/26 08:20:30;;;;;;;9.68;4.35;;;;;;;16.75;47.93;94572.25;5078691;28;20029;-71
2022/09/26 08:22:56;;;;;;;7.60;4.30;;;;;;;16.84;47.25;94573.06;5044402;28;20029;-71
2022/09/26 08:25:21;;;;;;;11.60;4.88;;;;;;;17.11;46.07;94573.59;5059084;28;20025;-72
2022/09/26 08:27:49;;;;;;;5.18;4.15;;;;;;;17.26;45.68;94555.28;5059620;28;20048;-72
2022/09/26 08:30:14;;;;;;;14.00;4.55;;;;;;;17.36;44.46;94559.34;5072235;28;20467;-72
2022/09/26 08:32:40;;;;;;;5.50;4.00;;;;;;;17.48;44.30;94551.84;5075337;28;20059;-72
2022/09/26 08:35:06;;;;;;;6.05;4.15;;;;;;;17.50;44.16;94554.31;5057863;28;20051;-72
2022/09/26 08:37:32;;;;;;;7.82;3.83;;;;;;;17.63;43.78;94547.47;5077798;28;20536;-71
2022/09/26 08:39:59;;;;;;;9.73;4.20;;;;;;;17.84;44.05;94546.84;5062077;28;20032;-72
2022/09/26 08:42:55;;;;;;;8.02;3.78;;;;;;;18.11;43.96;94539.38;5063149;28;20028;-71
2022/09/26 08:48:19;;;;;;;7.20;4.10;;;;;;;18.21;42.96;94539.91;5076563;28;20050;-72
2022/09/26 08:50:44;;;;;;;5.82;4.40;;;;;;;18.37;42.48;94538.91;5082608;28;20095;-72
2022/09/26 08:53:14;;;;;;;8.82;4.10;;;;;;;18.55;42.34;94533.28;5062616;28;20056;-72
2022/09/26 08:55:41;;;;;;;9.15;4.18;;;;;;;18.70;42.35;94541.16;5085503;28;20039;-72
2022/09/26 08:58:17;;;;;;;9.85;5.10;;;;;;;18.87;42.49;94531.28;5057727;28;20095;-72
2022/09/26 09:00:43;;;;;;;11.13;5.00;;;;;;;19.05;42.72;94523.78;5056001;28;20055;-72
2022/09/26 09:03:30;;;;;;;7.63;5.03;;;;;;;19.28;42.44;94530.69;5054501;28;20094;-72
2022/09/26 09:06:09;;;;;;;6.57;4.65;;;;;;;19.40;41.88;94522.13;5055586;28;20040;-72
2022/09/26 09:08:55;;;;;;;9.65;4.75;;;;;;;19.65;41.24;94527.00;5066960;28;20028;-72
2022/09/26 09:11:42;;;;;;;6.07;4.00;;;;;;;19.78;40.60;94524.53;5057968;28;20033;-72
2022/09/26 09:14:46;;;;;;;8.82;4.20;;;;;;;19.80;42.18;94522.50;5085391;28;20059;-72
2022/09/26 09:17:36;;;;;;;6.97;4.60;;;;;;;19.83;41.55;94531.84;5044760;28;20045;-72
2022/09/26 09:20:18;;;;;;;6.50;3.97;;;;;;;19.88;41.28;94528.63;5060695;28;20025;-70
2022/09/26 09:22:46;;;;;;;8.23;4.57;;;;;;;19.88;39.60;94512.81;5050030;28;20047;-71
2022/09/26 09:25:31;;;;;;;7.47;4.63;;;;;;;19.86;39.83;94515.63;5070828;28;20035;-71
2022/09/26 09:27:59;;;;;;;6.82;4.13;;;;;;;19.97;39.99;94522.22;5054178;28;20041;-71
2022/09/26 09:30:31;;;;;;;12.45;4.38;;;;;;;20.01;40.04;94520.84;5069339;28;20729;-71
2022/09/26 09:33:02;;;;;;;6.95;4.03;;;;;;;20.06;40.68;94516.63;5071879;28;20027;-71
2022/09/26 09:35:44;;;;;;;6.85;4.15;;;;;;;20.38;38.70;94521.47;5056606;28;20089;-71
2022/09/26 09:38:25;;;;;;;10.80;4.20;;;;;;;20.32;38.85;94512.50;5052847;28;20029;-71
2022/09/26 09:40:56;;;;;;;6.90;3.65;;;;;;;20.34;39.54;94512.31;5066875;28;20434;-71
2022/09/26 09:43:31;;;;;;;8.43;4.13;;;;;;;20.37;38.70;94511.94;5068036;28;20027;-71
2022/09/26 09:46:01;;;;;;;5.75;3.95;;;;;;;20.31;38.83;94516.16;5058093;28;20044;-71
2022/09/26 09:48:27;;;;;;;10.35;4.50;;;;;;;20.31;40.32;94510.91;5050918;28;20020;-71
2022/09/26 09:51:08;;;;;;;9.73;4.13;;;;;;;20.34;40.28;94499.13;5049542;28;20049;-71
2022/09/26 09:54:08;;;;;;;6.55;3.80;;;;;;;20.44;39.76;94494.31;5051449;28;20461;-71
2022/09/26 09:56:50;;;;;;;8.30;4.43;;;;;;;20.37;39.56;94491.66;5062753;28;20151;-71
2022/09/26 09:59:40;;;;;;;6.93;4.25;;;;;;;20.31;40.58;94492.44;5082780;28;20058;-71
2022/09/26 10:02:34;;;;;;;14.40;4.82;;;;;;;20.23;40.54;94501.31;5078790;28;20040;-71
2022/09/26 10:05:17;;;;;;;9.13;4.70;;;;;;;20.29;41.24;94482.06;5084951;28;20020;-71
2022/09/26 10:07:49;;;;;;;7.82;4.50;;;;;;;20.33;40.56;94461.38;5072713;28;20529;-71
2022/09/26 10:10:23;;;;;;;6.13;3.97;;;;;;;20.36;40.57;94458.34;5060765;28;20039;-71
2022/09/26 10:12:50;;;;;;;9.98;4.63;;;;;;;20.42;41.20;94456.75;5057349;28;20855;-71
2022/09/26 10:15:20;;;;;;;8.57;5.43;;;;;;;20.35;40.38;94459.38;5059539;28;20531;-71
2022/09/26 10:18:06;;;;;;;10.80;7.63;;;;;;;20.32;40.50;94462.41;5067630;28;20068;-71
2022/09/26 10:20:36;;;;;;;11.43;4.97;;;;;;;20.28;41.70;94477.81;5061552;28;20059;-71
2022/09/26 10:23:07;;;;;;;;;;;;;;;20.20;40.84;94470.06;5065735;28;20048;-71
2022/09/26 10:25:33;;;;;;;6.05;4.35;;;;;;;20.15;41.30;94461.09;5042943;28;20847;-71
2022/09/26 10:27:59;;;;;;;6.38;4.90;;;;;;;20.23;43.60;94468.84;5063063;28;20036;-71
2022/09/26 10:30:29;;;;;;;6.45;4.20;;;;;;;20.28;41.56;94456.72;5070474;28;20025;-71
2022/09/26 10:32:59;;;;;;;6.30;4.70;;;;;;;20.39;41.35;94450.03;5057396;28;20055;-71
2022/09/26 10:35:41;;;;;;;6.45;4.53;;;;;;;20.29;40.66;94468.88;5080870;28;20076;-71
2022/09/26 10:38:27;;;;;;;9.55;4.40;;;;;;;20.32;41.86;94454.50;5057512;28;20559;-71
2022/09/26 10:40:54;;;;;;;8.55;4.68;;;;;;;20.37;43.01;94444.16;5067081;28;20072;-71
2022/09/26 10:43:30;;;;;;;9.35;4.70;;;;;;;20.47;42.65;94449.06;5047622;28;20123;-71
2022/09/26 10:46:15;;;;;;;6.55;5.20;;;;;;;20.46;42.79;94434.25;5068581;28;20040;-71
2022/09/26 10:48:47;;;;;;;7.13;4.55;;;;;;;20.45;42.15;94430.81;5060635;28;20170;-71
2022/09/26 10:51:34;;;;;;;15.63;4.63;;;;;;;20.46;41.74;94437.72;5034113;28;20677;-71
2022/09/26 10:54:15;;;;;;;9.07;5.13;;;;;;;20.49;43.37;94429.41;5061642;28;20020;-71
2022/09/26 10:56:45;;;;;;;6.00;4.55;;;;;;;20.41;42.36;94412.94;5067296;28;20128;-71
2022/09/26 10:59:15;;;;;;;12.77;4.80;;;;;;;20.52;42.60;94428.19;5069768;28;20021;-71
2022/09/26 11:01:43;;;;;;;12.00;5.75;;;;;;;20.51;42.61;94416.03;5077995;28;20032;-71
2022/09/26 11:07:08;;;;;;;8.88;5.35;;;;;;;20.66;43.10;94410.59;5064372;28;20056;-71
2022/09/26 11:09:34;;;;;;;8.48;5.20;;;;;;;20.68;42.75;94409.41;5048550;28;20033;-71
2022/09/26 11:12:21;;;;;;;11.77;5.80;;;;;;;20.73;41.40;94403.53;5045523;28;20679;-71
2022/09/26 11:14:49;;;;;;;7.72;4.45;;;;;;;20.73;41.06;94398.25;5046078;28;20027;-71
2022/09/26 11:17:16;;;;;;;11.18;4.53;;;;;;;20.72;41.11;94380.78;5070292;28;20501;-71
2022/09/26 11:19:50;;;;;;;6.55;4.20;;;;;;;20.76;41.84;94374.09;5071661;28;20432;-72
2022/09/26 11:22:25;;;;;;;12.13;5.72;;;;;;;20.81;41.36;94374.31;5060510;28;20113;-71
2022/09/26 11:25:02;;;;;;;9.55;5.00;;;;;;;20.88;41.93;94382.25;5061872;28;20036;-71
2022/09/26 11:27:42;;;;;;;8.68;5.28;;;;;;;20.95;42.47;94377.78;5062406;28;20032;-71
2022/09/26 11:30:16;;;;;;;9.07;4.30;;;;;;;20.92;42.09;94368.44;5064078;28;20443;-71
2022/09/26 11:32:47;;;;;;;6.25;3.50;;;;;;;21.10;42.00;94364.41;5075491;28;20115;-71
2022/09/26 11:35:15;;;;;;;6.47;3.08;;;;;;;21.25;42.25;94356.25;5039249;28;20523;-71
2022/09/26 11:38:04;;;;;;;4.88;2.30;;;;;;;21.36;41.52;94353.00;5072431;28;20035;-71
2022/09/26 11:40:48;;;;;;;7.07;2.47;;;;;;;21.46;40.92;94353.44;5076631;28;20033;-71
2022/09/26 11:43:35;;;;;;;3.92;2.90;;;;;;;21.60;40.73;94338.38;5065591;28;20028;-71
2022/09/26 11:46:13;;;;;;;9.80;3.67;;;;;;;21.61;40.86;94334.72;5083409;28;20035;-71
2022/09/26 11:48:58;;;;;;;14.95;7.00;;;;;;;21.75;40.94;94331.00;5073353;28;20031;-71
2022/09/26 11:51:33;;;;;;;13.65;3.92;;;;;;;21.77;41.06;94331.63;5067457;28;20028;-71
2022/09/26 11:54:13;;;;;;;10.23;5.38;;;;;;;21.96;40.55;94326.50;5073208;28;20033;-71
2022/09/26 11:57:16;;;;;;;6.47;3.97;;;;;;;22.07;40.06;94320.56;5067293;28;20041;-71
2022/09/26 12:00:00;;;;;;;12.90;3.85;;;;;;;22.07;41.00;94308.13;5083297;28;20107;-71
2022/09/26 12:02:47;;;;;;;6.20;4.05;;;;;;;22.27;40.26;94297.50;5078710;28;20103;-72
2022/09/26 12:05:28;;;;;;;8.35;3.95;;;;;;;22.20;40.74;94294.06;5086741;28;20272;-71